createdAt,value
2023-02-19T00:01:44.445Z,11.24
2023-02-19T00:04:14.155Z,11.24
2023-02-19T00:06:41.568Z,11.15
2023-02-19T00:09:13.130Z,11.08
2023-02-19T00:11:40.354Z,11.04
2023-02-19T00:14:07.902Z,11.09
2023-02-19T00:16:37.484Z,11.15
2023-02-19T00:19:07.505Z,11.20
2023-02-19T00:21:34.283Z,11.20
2023-02-19T00:24:03.612Z,11.10
2023-02-19T00:26:30.972Z,11.19
2023-02-19T00:28:58.455Z,11.06
2023-02-19T00:31:27.386Z,11.05
2023-02-19T00:33:57.273Z,11.15
2023-02-19T00:36:25.242Z,11.08
2023-02-19T00:38:52.070Z,11.07
2023-02-19T00:41:20.661Z,11.04
2023-02-19T00:43:56.460Z,11.08
2023-02-19T00:46:24.282Z,11.04
2023-02-19T00:48:52.582Z,11.03
2023-02-19T00:51:21.476Z,11.03
2023-02-19T00:53:48.435Z,11.03
2023-02-19T00:56:15.319Z,10.95
2023-02-19T00:58:42.061Z,10.97
2023-02-19T01:01:09.464Z,10.97
2023-02-19T01:03:37.652Z,11.02
2023-02-19T01:06:05.452Z,10.95
2023-02-19T01:08:32.786Z,10.99
2023-02-19T01:11:02.243Z,11.10
2023-02-19T01:13:29.404Z,11.16
2023-02-19T01:16:05.129Z,11.23
2023-02-19T01:18:32.215Z,11.14
2023-02-19T01:20:59.269Z,11.04
2023-02-19T01:23:26.208Z,11.01
2023-02-19T01:25:53.198Z,10.95
2023-02-19T01:28:19.767Z,11.05
2023-02-19T01:30:46.411Z,11.01
2023-02-19T01:33:12.989Z,11.05
2023-02-19T01:35:40.167Z,11.04
2023-02-19T01:38:08.300Z,11.14
2023-02-19T01:40:34.933Z,11.10
2023-02-19T01:43:03.544Z,11.10
2023-02-19T01:45:32.270Z,11.09
2023-02-19T01:48:08.255Z,11.11
2023-02-19T01:50:44.496Z,11.27
2023-02-19T01:53:13.137Z,11.29
2023-02-19T01:55:40.783Z,11.19
2023-02-19T01:58:08.795Z,11.16
2023-02-19T02:00:37.858Z,11.04
2023-02-19T02:03:04.842Z,11.23
2023-02-19T02:05:40.186Z,11.16
2023-02-19T02:08:25.311Z,11.08
2023-02-19T02:10:52.739Z,11.19
2023-02-19T02:13:20.054Z,10.96
2023-02-19T02:15:52.243Z,10.98
2023-02-19T02:18:56.846Z,10.99
2023-02-19T02:21:36.252Z,11.25
2023-02-19T02:24:25.415Z,11.44
2023-02-19T02:27:15.097Z,11.16
2023-02-19T02:29:54.034Z,11.33
2023-02-19T02:32:30.830Z,10.98
2023-02-19T02:35:07.383Z,11.13
2023-02-19T02:37:37.150Z,11.11
2023-02-19T02:40:05.537Z,10.98
2023-02-19T02:42:34.193Z,11.14
2023-02-19T02:45:37.107Z,10.98
2023-02-19T02:48:22.730Z,10.81
2023-02-19T02:51:20.814Z,10.74
2023-02-19T02:54:34.937Z,10.75
2023-02-19T02:57:09.320Z,10.64
2023-02-19T02:59:42.904Z,10.76
2023-02-19T03:02:18.665Z,10.69
2023-02-19T03:05:14.917Z,10.60
2023-02-19T03:08:11.411Z,10.50
2023-02-19T03:10:44.568Z,10.45
2023-02-19T03:13:35.356Z,10.42
2023-02-19T03:16:31.265Z,10.14
2023-02-19T03:19:17.962Z,10.10
2023-02-19T03:22:11.940Z,10.30
2023-02-19T03:25:02.082Z,10.36
2023-02-19T03:27:32.357Z,10.44
2023-02-19T03:30:05.002Z,10.57
2023-02-19T03:32:47.243Z,10.43
2023-02-19T03:35:30.126Z,10.45
2023-02-19T03:38:07.251Z,10.48
2023-02-19T03:40:45.739Z,10.76
2023-02-19T03:43:27.030Z,10.55
2023-02-19T03:46:14.737Z,10.62
2023-02-19T03:48:50.776Z,10.66
2023-02-19T03:51:37.931Z,10.69
2023-02-19T03:54:13.273Z,10.84
2023-02-19T03:56:54.088Z,11.01
2023-02-19T03:59:34.835Z,11.11
2023-02-19T04:02:40.693Z,10.89
2023-02-19T04:05:16.499Z,10.85
2023-02-19T04:07:48.907Z,10.66
2023-02-19T04:10:19.226Z,10.63
2023-02-19T04:12:55.858Z,10.49
2023-02-19T04:15:27.548Z,10.52
2023-02-19T04:17:59.146Z,10.64
2023-02-19T04:20:27.738Z,10.63
2023-02-19T04:22:54.874Z,10.52
2023-02-19T04:25:23.694Z,10.51
2023-02-19T04:27:50.431Z,10.57
2023-02-19T04:30:17.130Z,10.55
2023-02-19T04:32:43.732Z,10.30
2023-02-19T04:35:10.313Z,10.31
2023-02-19T04:37:36.922Z,10.37
2023-02-19T04:40:03.676Z,10.46
2023-02-19T04:42:30.429Z,10.29
2023-02-19T04:44:56.996Z,10.47
2023-02-19T04:47:23.570Z,10.15
2023-02-19T04:49:50.103Z,10.30
2023-02-19T04:52:16.824Z,10.55
2023-02-19T04:54:43.349Z,10.45
2023-02-19T04:57:10.118Z,10.76
2023-02-19T04:59:36.659Z,10.10
2023-02-19T05:02:03.272Z,10.30
2023-02-19T05:04:29.870Z,10.13
2023-02-19T05:06:56.538Z,10.29
2023-02-19T05:09:23.112Z,10.33
2023-02-19T05:11:49.676Z,10.25
2023-02-19T05:14:17.118Z,10.25
2023-02-19T05:16:43.743Z,10.16
2023-02-19T05:19:13.502Z,10.20
2023-02-19T05:21:40.671Z,10.20
2023-02-19T05:24:07.817Z,10.34
2023-02-19T05:26:35.356Z,10.24
2023-02-19T05:29:02.322Z,10.24
2023-02-19T05:31:29.315Z,10.32
2023-02-19T05:33:56.492Z,10.33
2023-02-19T05:36:24.108Z,10.18
2023-02-19T05:38:55.799Z,10.24
2023-02-19T05:41:27.783Z,10.28
2023-02-19T05:43:55.725Z,10.13
2023-02-19T05:46:24.926Z,10.21
2023-02-19T05:48:52.719Z,10.08
2023-02-19T05:51:21.484Z,10.10
2023-02-19T05:53:48.936Z,9.94
2023-02-19T05:56:25.296Z,10.24
2023-02-19T05:58:53.421Z,10.22
2023-02-19T06:01:22.156Z,10.22
2023-02-19T06:03:48.817Z,10.36
2023-02-19T06:06:17.390Z,10.21
2023-02-19T06:08:44.258Z,10.27
2023-02-19T06:11:11.291Z,10.32
2023-02-19T06:13:38.076Z,10.20
2023-02-19T06:16:05.506Z,10.24
2023-02-19T06:18:32.142Z,10.11
2023-02-19T06:21:02.648Z,10.16
2023-02-19T06:23:29.947Z,10.12
2023-02-19T06:26:12.546Z,10.04
2023-02-19T06:28:40.481Z,9.91
2023-02-19T06:31:08.615Z,9.92
2023-02-19T06:33:36.085Z,9.83
2023-02-19T06:36:04.316Z,9.86
2023-02-19T06:38:31.258Z,9.81
2023-02-19T06:41:02.258Z,10.10
2023-02-19T06:43:29.171Z,10.10
2023-02-19T06:45:58.768Z,10.12
2023-02-19T06:48:26.334Z,9.90
2023-02-19T06:50:53.120Z,9.86
2023-02-19T06:53:19.688Z,9.91
2023-02-19T06:55:59.280Z,9.88
2023-02-19T06:58:26.389Z,9.84
2023-02-19T07:00:53.794Z,9.64
2023-02-19T07:03:20.717Z,9.62
2023-02-19T07:05:47.617Z,9.91
2023-02-19T07:08:14.410Z,9.79
2023-02-19T07:10:40.982Z,9.64
2023-02-19T07:13:07.535Z,9.58
2023-02-19T07:15:34.091Z,9.69
2023-02-19T07:18:00.829Z,9.64
2023-02-19T07:20:27.377Z,9.74
2023-02-19T07:22:54.061Z,9.80
2023-02-19T07:25:20.605Z,9.58
2023-02-19T07:27:47.142Z,9.82
2023-02-19T07:30:13.734Z,9.65
2023-02-19T07:32:45.316Z,9.83
2023-02-19T07:35:12.486Z,9.84
2023-02-19T07:37:40.805Z,9.55
2023-02-19T07:40:07.800Z,9.74
2023-02-19T07:42:34.335Z,9.83
2023-02-19T07:45:00.882Z,9.98
2023-02-19T07:47:28.580Z,9.91
2023-02-19T07:49:55.109Z,9.68
2023-02-19T07:52:21.757Z,9.40
2023-02-19T07:54:48.313Z,9.79
2023-02-19T07:57:14.905Z,9.64
2023-02-19T07:59:41.519Z,9.69
2023-02-19T08:02:45.006Z,9.70
2023-02-19T08:05:11.641Z,10.07
2023-02-19T08:07:38.243Z,9.95
2023-02-19T08:10:24.238Z,10.02
2023-02-19T08:13:19.324Z,9.93
2023-02-19T08:15:52.930Z,9.82
2023-02-19T08:18:22.219Z,9.87
2023-02-19T08:20:48.989Z,9.59
2023-02-19T08:23:15.938Z,9.47
2023-02-19T08:25:43.074Z,9.25
2023-02-19T08:28:11.280Z,9.29
2023-02-19T08:30:39.632Z,9.26
2023-02-19T08:33:07.818Z,9.23
2023-02-19T08:35:37.932Z,9.64
2023-02-19T08:38:06.014Z,9.94
2023-02-19T08:40:33.814Z,9.65
2023-02-19T08:43:05.243Z,9.57
2023-02-19T08:45:32.405Z,9.56
2023-02-19T08:47:59.445Z,9.45
2023-02-19T08:50:26.649Z,9.36
2023-02-19T08:52:53.617Z,9.32
2023-02-19T08:55:20.320Z,9.37
2023-02-19T08:57:48.631Z,9.41
2023-02-19T09:00:16.749Z,9.37
2023-02-19T09:02:43.411Z,9.40
2023-02-19T09:05:12.030Z,9.26
2023-02-19T09:07:39.154Z,9.36
2023-02-19T09:10:06.268Z,9.37
2023-02-19T09:12:33.571Z,9.30
2023-02-19T09:15:00.644Z,9.35
2023-02-19T09:17:27.602Z,9.51
2023-02-19T09:19:54.176Z,9.63
2023-02-19T09:22:20.865Z,9.45
2023-02-19T09:24:47.420Z,9.49
2023-02-19T09:27:18.681Z,9.56
2023-02-19T09:29:46.881Z,9.54
2023-02-19T09:32:14.130Z,9.37
2023-02-19T09:34:40.930Z,9.61
2023-02-19T09:37:08.239Z,9.36
2023-02-19T09:39:35.515Z,9.55
2023-02-19T09:42:11.255Z,9.38
2023-02-19T09:44:40.958Z,9.57
2023-02-19T09:47:28.124Z,9.51
2023-02-19T09:49:59.413Z,9.54
2023-02-19T09:52:30.276Z,9.44
2023-02-19T09:55:01.130Z,9.73
2023-02-19T09:57:30.824Z,9.55
2023-02-19T10:00:05.654Z,9.62
2023-02-19T10:02:32.581Z,9.67
2023-02-19T10:05:00.006Z,9.71
2023-02-19T10:07:37.349Z,9.34
2023-02-19T10:10:23.935Z,9.29
2023-02-19T10:12:59.060Z,9.44
2023-02-19T10:15:32.391Z,9.41
2023-02-19T10:17:58.967Z,9.54
2023-02-19T10:20:27.908Z,9.37
2023-02-19T10:23:07.465Z,9.21
2023-02-19T10:25:45.091Z,9.31
2023-02-19T10:28:16.989Z,9.20
2023-02-19T10:30:44.107Z,9.39
2023-02-19T10:33:12.509Z,9.63
2023-02-19T10:35:54.971Z,9.60
2023-02-19T10:38:25.997Z,9.61
2023-02-19T10:40:59.735Z,9.68
2023-02-19T10:43:36.981Z,9.63
2023-02-19T10:46:07.545Z,9.74
2023-02-19T10:48:44.622Z,9.63
2023-02-19T10:51:21.636Z,9.60
2023-02-19T10:53:50.797Z,9.62
2023-02-19T10:56:29.767Z,9.77
2023-02-19T10:59:15.840Z,9.87
2023-02-19T11:01:59.794Z,9.73
2023-02-19T11:04:29.911Z,9.58
2023-02-19T11:06:57.681Z,9.67
2023-02-19T11:09:30.873Z,9.80
2023-02-19T11:11:58.448Z,9.72
2023-02-19T11:14:27.544Z,9.85
2023-02-19T11:16:57.254Z,9.89
2023-02-19T11:19:43.172Z,9.71
2023-02-19T11:22:27.823Z,9.91
2023-02-19T11:24:58.491Z,9.96
2023-02-19T11:27:25.936Z,10.01
2023-02-19T11:29:52.538Z,10.03
2023-02-19T11:32:30.578Z,9.86
2023-02-19T11:35:22.543Z,9.84
2023-02-19T11:37:58.001Z,9.88
2023-02-19T11:40:44.516Z,10.03
2023-02-19T11:43:36.202Z,10.27
2023-02-19T11:46:37.333Z,10.09
2023-02-19T11:49:35.993Z,9.76
2023-02-19T11:52:07.518Z,9.45
2023-02-19T11:54:41.175Z,9.78
2023-02-19T11:57:45.455Z,9.67
2023-02-19T12:00:24.739Z,9.41
2023-02-19T12:03:06.444Z,9.56
2023-02-19T12:05:48.400Z,9.67
2023-02-19T12:08:33.492Z,9.80
2023-02-19T12:11:02.854Z,9.74
2023-02-19T12:13:56.720Z,9.72
2023-02-19T12:16:41.552Z,9.72
2023-02-19T12:19:39.178Z,9.64
2023-02-19T12:22:17.772Z,9.60
2023-02-19T12:25:16.856Z,9.63
2023-02-19T12:28:21.358Z,9.67
2023-02-19T12:31:08.835Z,9.73
2023-02-19T12:34:01.532Z,9.72
2023-02-19T12:36:59.022Z,9.82
2023-02-19T12:39:45.677Z,9.80
2023-02-19T12:42:29.461Z,9.82
2023-02-19T12:45:02.863Z,9.74
2023-02-19T12:47:36.400Z,9.72
2023-02-19T12:50:13.751Z,9.69
2023-02-19T12:52:46.281Z,9.68
2023-02-19T12:55:24.496Z,9.63
2023-02-19T12:57:51.904Z,9.56
2023-02-19T13:00:33.740Z,9.83
2023-02-19T13:03:04.040Z,9.69
2023-02-19T13:05:56.151Z,9.68
2023-02-19T13:08:42.036Z,9.70
2023-02-19T13:11:25.023Z,9.57
2023-02-19T13:14:03.212Z,9.69
2023-02-19T13:16:33.445Z,9.74
2023-02-19T13:19:02.826Z,9.63
2023-02-19T13:21:50.749Z,9.68
2023-02-19T13:24:24.681Z,9.82
2023-02-19T13:26:54.364Z,9.81
2023-02-19T13:29:39.185Z,9.86
2023-02-19T13:32:43.075Z,9.85
2023-02-19T13:35:26.854Z,9.75
2023-02-19T13:37:55.560Z,9.65
2023-02-19T13:40:32.514Z,9.51
2023-02-19T13:43:01.791Z,9.37
2023-02-19T13:45:38.616Z,9.42
2023-02-19T13:48:24.554Z,9.29
2023-02-19T13:51:30.924Z,9.57
2023-02-19T13:54:00.115Z,9.34
2023-02-19T13:56:29.562Z,9.35
2023-02-19T13:59:01.437Z,9.21
2023-02-19T14:01:53.220Z,9.26
2023-02-19T14:04:40.648Z,9.18
2023-02-19T14:07:07.469Z,9.48
2023-02-19T14:09:37.082Z,9.43
2023-02-19T14:12:14.392Z,9.64
2023-02-19T14:14:44.115Z,9.43
2023-02-19T14:17:12.472Z,9.61
2023-02-19T14:19:41.653Z,9.53
2023-02-19T14:22:45.684Z,9.49
2023-02-19T14:25:27.951Z,9.40
2023-02-19T14:28:00.494Z,9.44
2023-02-19T14:30:28.059Z,9.65
2023-02-19T14:33:09.754Z,9.68
2023-02-19T14:35:50.971Z,9.42
2023-02-19T14:38:26.451Z,9.36
2023-02-19T14:40:55.158Z,9.58
2023-02-19T14:43:24.784Z,9.37
2023-02-19T14:45:56.750Z,9.41
2023-02-19T14:48:43.197Z,9.40
2023-02-19T14:51:22.748Z,9.56
2023-02-19T14:53:50.180Z,9.70
2023-02-19T14:56:37.219Z,9.75
2023-02-19T14:59:25.891Z,9.64
2023-02-19T15:02:00.957Z,9.78
2023-02-19T15:04:37.513Z,9.72
2023-02-19T15:07:08.457Z,9.70
2023-02-19T15:09:45.680Z,9.92
2023-02-19T15:12:35.442Z,9.87
2023-02-19T15:15:05.826Z,9.88
2023-02-19T15:17:36.022Z,9.59
2023-02-19T15:20:11.374Z,9.65
2023-02-19T15:22:41.346Z,9.79
2023-02-19T15:25:12.294Z,9.74
2023-02-19T15:27:39.164Z,9.60
2023-02-19T15:30:28.322Z,9.57
2023-02-19T15:33:00.141Z,9.68
2023-02-19T15:35:29.046Z,9.58
2023-02-19T15:37:56.391Z,9.86
2023-02-19T15:40:29.367Z,9.83
2023-02-19T15:42:56.935Z,9.66
2023-02-19T15:45:25.841Z,9.84
2023-02-19T15:48:14.465Z,9.91
2023-02-19T15:50:46.573Z,9.72
2023-02-19T15:53:22.869Z,9.40
2023-02-19T15:56:03.718Z,9.62
2023-02-19T15:58:40.444Z,9.64
2023-02-19T16:01:21.712Z,9.40
2023-02-19T16:03:48.505Z,9.23
2023-02-19T16:06:17.780Z,9.32
2023-02-19T16:08:46.556Z,9.16
2023-02-19T16:11:27.900Z,9.06
2023-02-19T16:14:18.378Z,9.17
2023-02-19T16:16:48.756Z,9.34
2023-02-19T16:19:22.274Z,9.26
2023-02-19T16:21:50.567Z,9.28
2023-02-19T16:24:30.094Z,9.22
2023-02-19T16:26:57.478Z,9.22
2023-02-19T16:29:30.550Z,9.16
2023-02-19T16:32:00.273Z,9.35
2023-02-19T16:34:44.310Z,9.15
2023-02-19T16:37:29.778Z,9.11
2023-02-19T16:40:08.335Z,9.20
2023-02-19T16:42:36.628Z,9.10
2023-02-19T16:45:03.252Z,9.20
2023-02-19T16:47:31.958Z,9.23
2023-02-19T16:50:02.790Z,9.16
2023-02-19T16:52:30.229Z,9.37
2023-02-19T16:54:56.930Z,9.27
2023-02-19T16:57:23.748Z,9.12
2023-02-19T16:59:50.414Z,9.00
2023-02-19T17:02:21.336Z,9.10
2023-02-19T17:04:49.514Z,8.89
2023-02-19T17:07:17.970Z,9.08
2023-02-19T17:09:44.977Z,8.98
2023-02-19T17:12:13.455Z,8.63
2023-02-19T17:14:40.408Z,8.74
2023-02-19T17:17:07.064Z,8.89
2023-02-19T17:19:33.883Z,9.14
2023-02-19T17:22:00.443Z,8.96
2023-02-19T17:24:26.961Z,8.88
2023-02-19T17:26:53.631Z,8.87
2023-02-19T17:29:20.235Z,8.83
2023-02-19T17:31:46.929Z,9.01
2023-02-19T17:34:13.545Z,9.05
2023-02-19T17:36:42.841Z,9.17
2023-02-19T17:39:15.111Z,9.29
2023-02-19T17:41:42.155Z,9.25
2023-02-19T17:44:08.934Z,9.11
2023-02-19T17:46:35.715Z,8.89
2023-02-19T17:49:02.278Z,9.14
2023-02-19T17:51:28.981Z,8.89
2023-02-19T17:53:55.555Z,8.96
2023-02-19T17:56:25.627Z,9.11
2023-02-19T17:58:53.348Z,9.26
2023-02-19T18:01:20.459Z,9.29
2023-02-19T18:03:47.105Z,9.26
2023-02-19T18:06:13.703Z,9.10
2023-02-19T18:08:46.769Z,9.43
2023-02-19T18:11:13.541Z,9.25
2023-02-19T18:13:40.320Z,9.14
2023-02-19T18:16:07.164Z,9.06
2023-02-19T18:18:33.733Z,9.32
2023-02-19T18:21:00.367Z,9.32
2023-02-19T18:23:26.968Z,8.81
2023-02-19T18:25:53.509Z,8.95
2023-02-19T18:28:20.077Z,9.15
2023-02-19T18:30:46.768Z,9.35
2023-02-19T18:33:13.456Z,8.97
2023-02-19T18:35:40.202Z,8.86
2023-02-19T18:38:06.777Z,8.96
2023-02-19T18:40:33.390Z,9.04
2023-02-19T18:43:00.040Z,9.23
2023-02-19T18:45:27.411Z,9.05
2023-02-19T18:47:53.973Z,9.22
2023-02-19T18:50:20.527Z,9.01
2023-02-19T18:52:47.186Z,8.92
2023-02-19T18:55:13.839Z,8.81
2023-02-19T18:57:40.545Z,8.93
2023-02-19T19:00:08.016Z,9.06
2023-02-19T19:02:47.381Z,9.09
2023-02-19T19:05:20.837Z,9.34
2023-02-19T19:07:47.406Z,9.02
2023-02-19T19:10:14.729Z,8.91
2023-02-19T19:12:41.398Z,8.98
2023-02-19T19:15:08.410Z,8.79
2023-02-19T19:17:34.977Z,8.95
2023-02-19T19:20:01.616Z,9.09
2023-02-19T19:22:28.568Z,9.20
2023-02-19T19:24:55.096Z,9.22
2023-02-19T19:27:21.702Z,9.34
2023-02-19T19:29:49.702Z,9.47
2023-02-19T19:32:16.589Z,9.38
2023-02-19T19:34:43.328Z,9.30
2023-02-19T19:37:10.191Z,9.37
2023-02-19T19:39:36.904Z,9.22
2023-02-19T19:42:03.588Z,9.17
2023-02-19T19:44:30.148Z,8.92
2023-02-19T19:46:56.821Z,8.98
2023-02-19T19:49:23.709Z,8.76
2023-02-19T19:51:50.517Z,8.90
2023-02-19T19:54:17.102Z,9.01
2023-02-19T19:56:46.265Z,8.94
2023-02-19T19:59:15.648Z,8.82
2023-02-19T20:01:50.728Z,8.71
2023-02-19T20:04:18.181Z,8.45
2023-02-19T20:06:44.838Z,8.57
2023-02-19T20:09:12.023Z,8.69
2023-02-19T20:11:45.549Z,8.66
2023-02-19T20:14:12.222Z,8.63
2023-02-19T20:16:38.798Z,8.89
2023-02-19T20:19:06.036Z,8.94
2023-02-19T20:21:32.698Z,9.03
2023-02-19T20:23:59.754Z,8.86
2023-02-19T20:26:28.643Z,8.44
2023-02-19T20:28:56.242Z,8.82
2023-02-19T20:31:23.224Z,8.92
2023-02-19T20:33:51.064Z,9.24
2023-02-19T20:36:19.949Z,9.42
2023-02-19T20:38:48.575Z,9.52
2023-02-19T20:41:15.445Z,9.56
2023-02-19T20:43:42.034Z,9.50
2023-02-19T20:46:08.673Z,9.57
2023-02-19T20:48:35.303Z,9.47
2023-02-19T20:51:01.957Z,9.51
2023-02-19T20:53:29.951Z,9.59
2023-02-19T20:55:56.601Z,9.45
2023-02-19T20:58:24.011Z,9.46
2023-02-19T21:00:53.391Z,9.35
2023-02-19T21:03:21.085Z,8.80
2023-02-19T21:05:47.751Z,8.49
2023-02-19T21:08:17.138Z,8.59
2023-02-19T21:10:45.848Z,8.60
2023-02-19T21:13:13.426Z,8.94
2023-02-19T21:15:39.969Z,8.68
2023-02-19T21:18:06.810Z,8.42
2023-02-19T21:20:33.866Z,8.58
2023-02-19T21:23:00.803Z,8.75
2023-02-19T21:25:27.651Z,8.42
2023-02-19T21:27:54.197Z,8.30
2023-02-19T21:30:20.790Z,8.16
2023-02-19T21:32:47.426Z,8.26
2023-02-19T21:35:14.011Z,8.02
2023-02-19T21:37:44.357Z,7.97
2023-02-19T21:40:12.382Z,8.04
2023-02-19T21:42:38.954Z,7.91
2023-02-19T21:45:05.920Z,8.28
2023-02-19T21:47:32.495Z,8.48
2023-02-19T21:49:59.055Z,8.75
2023-02-19T21:52:26.841Z,8.77
2023-02-19T21:54:53.430Z,8.60
2023-02-19T21:57:20.075Z,8.40
2023-02-19T21:59:46.688Z,8.46
2023-02-19T22:02:13.458Z,8.46
2023-02-19T22:04:40.872Z,8.54
2023-02-19T22:07:07.492Z,8.52
2023-02-19T22:09:34.097Z,8.38
2023-02-19T22:12:00.668Z,8.30
2023-02-19T22:14:27.217Z,8.20
2023-02-19T22:16:53.764Z,8.29
2023-02-19T22:19:20.611Z,8.05
2023-02-19T22:21:47.190Z,8.00
2023-02-19T22:24:17.460Z,8.04
2023-02-19T22:26:44.836Z,8.39
2023-02-19T22:29:13.459Z,8.15
2023-02-19T22:31:40.119Z,8.39
2023-02-19T22:34:06.753Z,8.34
2023-02-19T22:36:34.267Z,8.75
2023-02-19T22:39:01.539Z,8.99
2023-02-19T22:41:28.631Z,9.00
2023-02-19T22:43:56.624Z,8.98
2023-02-19T22:46:25.993Z,8.90
2023-02-19T22:48:52.524Z,8.83
2023-02-19T22:51:21.450Z,8.59
2023-02-19T22:53:49.935Z,8.65
2023-02-19T22:56:18.062Z,8.50
2023-02-19T22:58:45.099Z,8.71
2023-02-19T23:01:13.185Z,8.81
2023-02-19T23:03:54.403Z,8.87
2023-02-19T23:06:27.054Z,8.56
2023-02-19T23:08:55.718Z,8.36
2023-02-19T23:11:27.969Z,8.41
2023-02-19T23:13:54.670Z,7.96
2023-02-19T23:16:21.603Z,8.39
2023-02-19T23:18:48.782Z,8.41
2023-02-19T23:21:16.241Z,8.23
2023-02-19T23:23:43.797Z,8.01
2023-02-19T23:26:11.188Z,8.05
2023-02-19T23:28:40.321Z,8.25
2023-02-19T23:31:07.197Z,8.13
2023-02-19T23:33:33.956Z,8.37
2023-02-19T23:36:00.656Z,8.52
2023-02-19T23:38:27.403Z,8.24
2023-02-19T23:40:53.946Z,8.28
2023-02-19T23:43:21.069Z,8.35
2023-02-19T23:45:47.767Z,8.30
2023-02-19T23:48:14.355Z,8.13
2023-02-19T23:50:40.894Z,8.21
2023-02-19T23:53:07.586Z,8.40
2023-02-19T23:55:34.137Z,8.35
2023-02-19T23:58:00.721Z,8.68
